This is the latest recevied weather packets stored in our database for station/object KP3M-5. If no packets are shown the sender has not sent any weather packets the latest 10 day(s).
| Time | Temp. | Humidity | Pressure | Rain* | Wind** | Luminosity | Snow |
|---|---|---|---|---|---|---|---|
| 1778076304 | 26.11° C | 75% | 1024 hPa | - | - | - | - |
| 1778072704 | 26.11° C | 78% | 1024 hPa | - | - | - | - |
| 1778061904 | 21.11° C | 90% | 1024 hPa | - | - | - | - |
| 1778018704 | 26.11° C | 74% | 1024 hPa | - | - | - | - |
| 1778015104 | 27.22° C | 71% | 1024 hPa | - | - | - | - |
| 1778011504 | 27.78° C | 69% | 1024 hPa | - | - | - | - |
| 1778007905 | 27.78° C | 70% | 1024 hPa | - | - | - | - |
| 1778004304 | 27.22° C | 72% | 1024 hPa | - | - | - | - |
| 1778000704 | 27.22° C | 74% | 1024 hPa | - | - | - | - |
| 1777997104 | 27.78° C | 74% | 1024 hPa | - | - | - | - |
| 1777993504 | 27.22° C | 76% | 1024 hPa | - | - | - | - |
| 1777989904 | 26.11° C | 77% | 1024 hPa | - | - | - | - |
| 1777986305 | 26.11° C | 78% | 1024 hPa | - | - | - | - |
| 1777982704 | 24.44° C | 84% | 1024 hPa | - | - | - | - |
| 1777979104 | 22.78° C | 90% | 1024 hPa | - | - | - | - |
| 1777975503 | 21.11° C | 91% | 1024 hPa | - | - | - | - |
| 1777971904 | 21.11° C | 91% | 1024 hPa | - | - | - | - |
| 1777968305 | 21.11° C | 91% | 1024 hPa | - | - | - | - |
| 1777932304 | 25° C | 80% | 1024 hPa | - | - | - | - |
| 1777928704 | 26.11° C | 78% | 1024 hPa | - | - | - | - |
| 1777925104 | 26.11° C | 79% | 1024 hPa | - | - | - | - |
| 1777924979 | 26.11° C | 78% | 1024 hPa | - | - | - | - |
| 1777665904 | 26.67° C | 75% | 1024 hPa | - | - | - | - |
| 1777662303 | 27.78° C | 73% | 1024 hPa | - | - | - | - |
| 1777658704 | 27.78° C | 73% | 1024 hPa | - | - | - | - |
* Rain since midnight (hover to see other rain measurements)
** Current wind speed in m/s (hover to see current wind gust speed)